This is the latest recevied weather packets stored in our database for station/object KY4GW. If no packets are shown the sender has not sent any weather packets the latest 10 day(s).
| Time | Temp. | Humidity | Pressure | Rain* | Wind** | Luminosity | Snow |
|---|---|---|---|---|---|---|---|
| 1777811829 | 10° C | 65% | 1023.8 hPa | 0 mm | - | 202 W/m² | - |
| 1777811527 | 9.44° C | 66% | 1023.8 hPa | 0 mm | - | 184 W/m² | - |
| 1777811223 | 8.89° C | 68% | 1023.5 hPa | 0 mm | - | 164 W/m² | - |
| 1777810920 | 8.33° C | 70% | 1023.5 hPa | 0 mm | - | 147 W/m² | - |
| 1777810616 | 7.78° C | 74% | 1023.5 hPa | 0 mm | - | 133 W/m² | - |
| 1777810314 | 7.22° C | 71% | 1023.1 hPa | 0 mm | - | 123 W/m² | - |
| 1777810009 | 6.67° C | 71% | 1023.1 hPa | 0 mm | - | 110 W/m² | - |
| 1777808800 | 3.89° C | 77% | 1023.1 hPa | 0 mm | - | 69 W/m² | - |
| 1777808194 | 2.22° C | 90% | 1023.1 hPa | 0 mm | - | 52 W/m² | - |
| 1777807892 | 1.11° C | 94% | 1023.1 hPa | 0 mm | - | 43 W/m² | - |
| 1777807287 | 0.56° C | 95% | 1022.8 hPa | 0 mm | - | 30 W/m² | - |
| 1777806983 | 0.56° C | 96% | 1022.8 hPa | 0 mm | - | 30 W/m² | - |
| 1777806073 | -1.11° C | 95% | 1022.8 hPa | 0 mm | - | 12 W/m² | - |
| 1777803954 | -1.11° C | 95% | 1022.8 hPa | 0 mm | - | 0 W/m² | - |
| 1777803650 | -1.11° C | 95% | 1022.8 hPa | 0 mm | - | 0 W/m² | - |
| 1777803346 | -1.11° C | 95% | 1022.8 hPa | 0 mm | - | 0 W/m² | - |
| 1777803044 | -1.11° C | 95% | 1022.1 hPa | 0 mm | - | 0 W/m² | - |
| 1777802741 | -1.11° C | 95% | 1022.1 hPa | 0 mm | - | 0 W/m² | - |
| 1777801227 | -1.11° C | 95% | 1022.4 hPa | 0 mm | - | 0 W/m² | - |
| 1777800925 | -1.11° C | 95% | 1022.4 hPa | 0 mm | - | 0 W/m² | - |
| 1777800621 | -1.11° C | 95% | 1022.4 hPa | 0 mm | - | 0 W/m² | - |
| 1777800317 | -0.56° C | 95% | 1022.4 hPa | 0 mm | - | 0 W/m² | - |
| 1777800014 | -1.11° C | 95% | 1022.4 hPa | 0 mm | - | 0 W/m² | - |
| 1777799709 | -0.56° C | 95% | 1022.4 hPa | 0 mm | - | 0 W/m² | - |
| 1777799407 | -0.56° C | 95% | 1022.4 hPa | 0 mm | - | 0 W/m² | - |
* Rain latest hour (hover to see other rain measurements)
** Current wind speed in m/s (hover to see current wind gust speed)